sensor_id;sensor_type;location;lat;lon;timestamp;P1;durP1;ratioP1;P2;durP2;ratioP2
11269;SDS011;5692;48.956;9.200;2023-04-03T00:01:13;101.25;;;96.38;;
11269;SDS011;5692;48.956;9.200;2023-04-03T00:03:39;110.50;;;105.20;;
11269;SDS011;5692;48.956;9.200;2023-04-03T00:06:07;107.35;;;102.18;;
11269;SDS011;5692;48.956;9.200;2023-04-03T00:08:35;114.00;;;108.53;;
11269;SDS011;5692;48.956;9.200;2023-04-03T00:11:02;100.82;;;95.97;;
11269;SDS011;5692;48.956;9.200;2023-04-03T00:13:28;103.88;;;98.88;;
11269;SDS011;5692;48.956;9.200;2023-04-03T00:15:55;98.93;;;94.18;;
11269;SDS011;5692;48.956;9.200;2023-04-03T00:18:21;114.60;;;109.10;;
11269;SDS011;5692;48.956;9.200;2023-04-03T00:20:47;105.85;;;100.75;;
11269;SDS011;5692;48.956;9.200;2023-04-03T00:23:14;106.82;;;101.72;;
11269;SDS011;5692;48.956;9.200;2023-04-03T00:25:40;111.47;;;106.13;;
11269;SDS011;5692;48.956;9.200;2023-04-03T00:28:07;110.15;;;104.85;;
11269;SDS011;5692;48.956;9.200;2023-04-03T00:30:33;113.60;;;108.10;;
11269;SDS011;5692;48.956;9.200;2023-04-03T00:33:00;105.28;;;100.18;;
11269;SDS011;5692;48.956;9.200;2023-04-03T00:35:26;109.85;;;104.55;;
11269;SDS011;5692;48.956;9.200;2023-04-03T00:37:53;111.95;;;106.55;;
11269;SDS011;5692;48.956;9.200;2023-04-03T00:40:20;111.82;;;106.43;;
11269;SDS011;5692;48.956;9.200;2023-04-03T00:42:48;108.68;;;103.47;;
11269;SDS011;5692;48.956;9.200;2023-04-03T00:47:44;105.25;;;100.18;;
11269;SDS011;5692;48.956;9.200;2023-04-03T00:50:10;106.15;;;101.05;;
11269;SDS011;5692;48.956;9.200;2023-04-03T00:52:36;109.75;;;104.45;;
11269;SDS011;5692;48.956;9.200;2023-04-03T00:55:04;107.28;;;102.10;;
11269;SDS011;5692;48.956;9.200;2023-04-03T00:57:31;102.95;;;98.00;;
11269;SDS011;5692;48.956;9.200;2023-04-03T00:59:59;112.43;;;107.03;;
11269;SDS011;5692;48.956;9.200;2023-04-03T01:02:28;106.03;;;100.93;;
11269;SDS011;5692;48.956;9.200;2023-04-03T01:04:54;106.63;;;101.53;;
11269;SDS011;5692;48.956;9.200;2023-04-03T01:07:21;106.60;;;101.50;;
11269;SDS011;5692;48.956;9.200;2023-04-03T01:09:49;109.07;;;103.82;;
11269;SDS011;5692;48.956;9.200;2023-04-03T01:12:21;117.82;;;112.13;;
11269;SDS011;5692;48.956;9.200;2023-04-03T01:14:49;122.72;;;116.82;;
11269;SDS011;5692;48.956;9.200;2023-04-03T01:17:24;116.95;;;111.35;;
11269;SDS011;5692;48.956;9.200;2023-04-03T01:19:57;113.32;;;107.88;;
11269;SDS011;5692;48.956;9.200;2023-04-03T01:22:30;105.60;;;100.53;;
11269;SDS011;5692;48.956;9.200;2023-04-03T01:25:01;107.88;;;102.68;;
11269;SDS011;5692;48.956;9.200;2023-04-03T01:27:27;98.28;;;93.57;;
11269;SDS011;5692;48.956;9.200;2023-04-03T01:29:53;103.95;;;98.95;;
11269;SDS011;5692;48.956;9.200;2023-04-03T01:32:20;101.78;;;96.88;;
11269;SDS011;5692;48.956;9.200;2023-04-03T01:34:46;107.75;;;102.55;;
11269;SDS011;5692;48.956;9.200;2023-04-03T01:37:13;109.40;;;104.10;;
11269;SDS011;5692;48.956;9.200;2023-04-03T01:39:39;116.72;;;111.13;;
11269;SDS011;5692;48.956;9.200;2023-04-03T01:42:05;114.00;;;108.50;;
11269;SDS011;5692;48.956;9.200;2023-04-03T01:44:31;112.13;;;106.72;;
11269;SDS011;5692;48.956;9.200;2023-04-03T01:46:58;109.53;;;104.25;;
11269;SDS011;5692;48.956;9.200;2023-04-03T01:49:24;105.15;;;100.07;;
11269;SDS011;5692;48.956;9.200;2023-04-03T01:51:50;116.55;;;110.95;;
11269;SDS011;5692;48.956;9.200;2023-04-03T01:54:16;110.97;;;105.68;;
11269;SDS011;5692;48.956;9.200;2023-04-03T01:56:42;116.32;;;110.72;;
11269;SDS011;5692;48.956;9.200;2023-04-03T01:59:09;119.47;;;113.75;;
11269;SDS011;5692;48.956;9.200;2023-04-03T02:01:35;114.20;;;108.70;;
11269;SDS011;5692;48.956;9.200;2023-04-03T02:04:01;116.30;;;110.70;;
11269;SDS011;5692;48.956;9.200;2023-04-03T02:06:27;116.43;;;110.82;;
11269;SDS011;5692;48.956;9.200;2023-04-03T02:08:54;116.13;;;110.53;;
11269;SDS011;5692;48.956;9.200;2023-04-03T02:11:20;112.60;;;107.18;;
11269;SDS011;5692;48.956;9.200;2023-04-03T02:13:46;119.28;;;113.55;;
11269;SDS011;5692;48.956;9.200;2023-04-03T02:16:12;115.78;;;110.18;;
11269;SDS011;5692;48.956;9.200;2023-04-03T02:18:38;114.55;;;109.05;;
11269;SDS011;5692;48.956;9.200;2023-04-03T02:21:05;120.20;;;114.43;;
11269;SDS011;5692;48.956;9.200;2023-04-03T02:23:31;119.97;;;114.20;;
11269;SDS011;5692;48.956;9.200;2023-04-03T02:26:30;115.30;;;109.80;;
11269;SDS011;5692;48.956;9.200;2023-04-03T02:28:51;111.93;;;106.53;;
11269;SDS011;5692;48.956;9.200;2023-04-03T02:31:17;107.00;;;101.85;;
11269;SDS011;5692;48.956;9.200;2023-04-03T02:33:43;106.70;;;101.60;;
11269;SDS011;5692;48.956;9.200;2023-04-03T02:36:10;105.50;;;100.40;;
11269;SDS011;5692;48.956;9.200;2023-04-03T02:38:36;111.80;;;106.43;;
11269;SDS011;5692;48.956;9.200;2023-04-03T02:41:05;119.38;;;113.68;;
11269;SDS011;5692;48.956;9.200;2023-04-03T02:43:32;110.28;;;104.97;;
11269;SDS011;5692;48.956;9.200;2023-04-03T02:46:01;112.15;;;106.75;;
11269;SDS011;5692;48.956;9.200;2023-04-03T02:48:27;105.65;;;100.55;;
11269;SDS011;5692;48.956;9.200;2023-04-03T02:50:54;108.57;;;103.38;;
11269;SDS011;5692;48.956;9.200;2023-04-03T02:53:20;110.03;;;104.72;;
11269;SDS011;5692;48.956;9.200;2023-04-03T02:55:47;108.05;;;102.85;;
11269;SDS011;5692;48.956;9.200;2023-04-03T02:58:14;106.93;;;101.80;;
11269;SDS011;5692;48.956;9.200;2023-04-03T03:00:40;110.60;;;105.30;;
11269;SDS011;5692;48.956;9.200;2023-04-03T03:03:06;110.00;;;104.70;;
11269;SDS011;5692;48.956;9.200;2023-04-03T03:05:33;109.63;;;104.32;;
11269;SDS011;5692;48.956;9.200;2023-04-03T03:07:59;103.75;;;98.75;;
11269;SDS011;5692;48.956;9.200;2023-04-03T03:10:25;111.57;;;106.18;;
11269;SDS011;5692;48.956;9.200;2023-04-03T03:12:51;110.75;;;105.45;;
11269;SDS011;5692;48.956;9.200;2023-04-03T03:15:18;108.53;;;103.32;;
11269;SDS011;5692;48.956;9.200;2023-04-03T03:17:44;111.28;;;105.93;;
11269;SDS011;5692;48.956;9.200;2023-04-03T03:20:11;115.15;;;109.65;;
11269;SDS011;5692;48.956;9.200;2023-04-03T03:22:40;113.70;;;108.20;;
11269;SDS011;5692;48.956;9.200;2023-04-03T03:25:06;106.15;;;101.05;;
11269;SDS011;5692;48.956;9.200;2023-04-03T03:27:32;107.40;;;102.20;;
11269;SDS011;5692;48.956;9.200;2023-04-03T03:29:59;110.00;;;104.72;;
11269;SDS011;5692;48.956;9.200;2023-04-03T03:32:25;106.07;;;100.97;;
11269;SDS011;5692;48.956;9.200;2023-04-03T03:34:51;105.20;;;100.13;;
11269;SDS011;5692;48.956;9.200;2023-04-03T03:37:17;99.70;;;94.90;;
11269;SDS011;5692;48.956;9.200;2023-04-03T03:39:43;106.43;;;101.32;;
11269;SDS011;5692;48.956;9.200;2023-04-03T03:42:10;111.72;;;106.35;;
11269;SDS011;5692;48.956;9.200;2023-04-03T03:44:36;106.88;;;101.72;;
11269;SDS011;5692;48.956;9.200;2023-04-03T03:47:02;97.30;;;92.63;;
11269;SDS011;5692;48.956;9.200;2023-04-03T03:49:31;96.00;;;91.40;;
11269;SDS011;5692;48.956;9.200;2023-04-03T03:51:57;96.32;;;91.70;;
11269;SDS011;5692;48.956;9.200;2023-04-03T03:54:23;95.13;;;90.53;;
11269;SDS011;5692;48.956;9.200;2023-04-03T03:56:49;103.15;;;98.15;;
11269;SDS011;5692;48.956;9.200;2023-04-03T03:59:15;102.00;;;97.10;;
11269;SDS011;5692;48.956;9.200;2023-04-03T04:01:42;96.63;;;91.97;;
11269;SDS011;5692;48.956;9.200;2023-04-03T04:04:08;104.35;;;99.32;;
11269;SDS011;5692;48.956;9.200;2023-04-03T04:06:34;100.78;;;95.93;;
11269;SDS011;5692;48.956;9.200;2023-04-03T04:09:00;93.88;;;89.38;;
11269;SDS011;5692;48.956;9.200;2023-04-03T04:11:27;90.47;;;86.13;;
11269;SDS011;5692;48.956;9.200;2023-04-03T04:13:53;94.72;;;90.15;;
11269;SDS011;5692;48.956;9.200;2023-04-03T04:16:19;96.97;;;92.30;;
11269;SDS011;5692;48.956;9.200;2023-04-03T04:18:45;96.30;;;91.70;;
11269;SDS011;5692;48.956;9.200;2023-04-03T04:21:12;98.15;;;93.45;;
11269;SDS011;5692;48.956;9.200;2023-04-03T04:23:38;97.85;;;93.15;;
11269;SDS011;5692;48.956;9.200;2023-04-03T04:26:04;100.85;;;96.00;;
11269;SDS011;5692;48.956;9.200;2023-04-03T04:28:30;92.38;;;87.93;;
11269;SDS011;5692;48.956;9.200;2023-04-03T04:30:57;98.07;;;93.38;;
11269;SDS011;5692;48.956;9.200;2023-04-03T04:33:23;97.53;;;92.85;;
11269;SDS011;5692;48.956;9.200;2023-04-03T04:35:49;94.22;;;89.68;;
11269;SDS011;5692;48.956;9.200;2023-04-03T04:38:19;104.00;;;99.00;;
11269;SDS011;5692;48.956;9.200;2023-04-03T04:40:46;94.00;;;89.50;;
11269;SDS011;5692;48.956;9.200;2023-04-03T04:43:13;104.13;;;99.13;;
11269;SDS011;5692;48.956;9.200;2023-04-03T04:45:40;97.97;;;93.28;;
11269;SDS011;5692;48.956;9.200;2023-04-03T04:48:06;100.25;;;95.45;;
11269;SDS011;5692;48.956;9.200;2023-04-03T04:50:32;97.75;;;93.05;;
11269;SDS011;5692;48.956;9.200;2023-04-03T04:52:58;108.88;;;103.63;;
11269;SDS011;5692;48.956;9.200;2023-04-03T04:55:25;107.38;;;102.18;;
11269;SDS011;5692;48.956;9.200;2023-04-03T04:57:53;99.28;;;94.47;;
11269;SDS011;5692;48.956;9.200;2023-04-03T05:00:19;99.93;;;95.13;;
11269;SDS011;5692;48.956;9.200;2023-04-03T05:02:46;102.90;;;97.95;;
11269;SDS011;5692;48.956;9.200;2023-04-03T05:05:12;95.10;;;90.50;;
11269;SDS011;5692;48.956;9.200;2023-04-03T05:07:38;104.30;;;99.30;;
11269;SDS011;5692;48.956;9.200;2023-04-03T05:10:05;98.78;;;94.03;;
11269;SDS011;5692;48.956;9.200;2023-04-03T05:12:32;102.68;;;97.78;;
11269;SDS011;5692;48.956;9.200;2023-04-03T05:14:58;110.63;;;105.32;;
11269;SDS011;5692;48.956;9.200;2023-04-03T05:17:24;114.80;;;109.30;;
11269;SDS011;5692;48.956;9.200;2023-04-03T05:19:50;111.00;;;105.68;;
11269;SDS011;5692;48.956;9.200;2023-04-03T05:22:17;115.07;;;109.57;;
11269;SDS011;5692;48.956;9.200;2023-04-03T05:24:43;111.13;;;105.82;;
11269;SDS011;5692;48.956;9.200;2023-04-03T05:27:09;115.15;;;109.65;;
11269;SDS011;5692;48.956;9.200;2023-04-03T05:29:36;118.07;;;112.40;;
11269;SDS011;5692;48.956;9.200;2023-04-03T05:32:02;113.20;;;107.80;;
11269;SDS011;5692;48.956;9.200;2023-04-03T05:34:28;89.45;;;85.15;;
11269;SDS011;5692;48.956;9.200;2023-04-03T05:36:54;104.10;;;99.10;;
11269;SDS011;5692;48.956;9.200;2023-04-03T05:39:20;102.03;;;97.13;;
11269;SDS011;5692;48.956;9.200;2023-04-03T05:41:47;99.93;;;95.13;;
11269;SDS011;5692;48.956;9.200;2023-04-03T05:44:14;100.45;;;95.65;;
11269;SDS011;5692;48.956;9.200;2023-04-03T05:46:41;98.00;;;93.30;;
11269;SDS011;5692;48.956;9.200;2023-04-03T05:49:07;100.85;;;96.00;;
11269;SDS011;5692;48.956;9.200;2023-04-03T05:51:34;104.82;;;99.82;;
11269;SDS011;5692;48.956;9.200;2023-04-03T05:54:03;108.30;;;103.10;;
11269;SDS011;5692;48.956;9.200;2023-04-03T05:56:32;107.75;;;102.55;;
11269;SDS011;5692;48.956;9.200;2023-04-03T05:59:01;101.60;;;96.70;;
11269;SDS011;5692;48.956;9.200;2023-04-03T06:01:27;104.55;;;99.53;;
11269;SDS011;5692;48.956;9.200;2023-04-03T06:03:53;107.00;;;101.85;;
11269;SDS011;5692;48.956;9.200;2023-04-03T06:06:19;105.90;;;100.80;;
11269;SDS011;5692;48.956;9.200;2023-04-03T06:08:47;114.95;;;109.45;;
11269;SDS011;5692;48.956;9.200;2023-04-03T06:11:13;110.18;;;104.88;;
11269;SDS011;5692;48.956;9.200;2023-04-03T06:13:40;111.18;;;105.82;;
11269;SDS011;5692;48.956;9.200;2023-04-03T06:16:06;107.45;;;102.28;;
11269;SDS011;5692;48.956;9.200;2023-04-03T06:18:32;95.55;;;90.95;;
11269;SDS011;5692;48.956;9.200;2023-04-03T06:20:58;100.63;;;95.82;;
11269;SDS011;5692;48.956;9.200;2023-04-03T06:23:25;108.85;;;103.60;;
11269;SDS011;5692;48.956;9.200;2023-04-03T06:25:52;107.13;;;101.97;;
11269;SDS011;5692;48.956;9.200;2023-04-03T06:28:18;104.70;;;99.70;;
11269;SDS011;5692;48.956;9.200;2023-04-03T06:30:44;97.20;;;92.50;;
11269;SDS011;5692;48.956;9.200;2023-04-03T06:33:10;102.10;;;97.20;;
11269;SDS011;5692;48.956;9.200;2023-04-03T06:35:37;102.85;;;97.90;;
11269;SDS011;5692;48.956;9.200;2023-04-03T06:38:03;103.07;;;98.10;;
11269;SDS011;5692;48.956;9.200;2023-04-03T06:40:34;101.13;;;96.22;;
11269;SDS011;5692;48.956;9.200;2023-04-03T06:43:01;101.10;;;96.20;;
11269;SDS011;5692;48.956;9.200;2023-04-03T06:45:30;103.78;;;98.78;;
11269;SDS011;5692;48.956;9.200;2023-04-03T06:47:56;106.35;;;101.25;;
11269;SDS011;5692;48.956;9.200;2023-04-03T06:50:22;108.68;;;103.47;;
11269;SDS011;5692;48.956;9.200;2023-04-03T06:52:49;101.40;;;96.50;;
11269;SDS011;5692;48.956;9.200;2023-04-03T06:55:15;101.20;;;96.30;;
11269;SDS011;5692;48.956;9.200;2023-04-03T06:57:44;101.88;;;96.97;;
11269;SDS011;5692;48.956;9.200;2023-04-03T07:00:10;99.47;;;94.68;;
11269;SDS011;5692;48.956;9.200;2023-04-03T07:02:37;102.50;;;97.55;;
11269;SDS011;5692;48.956;9.200;2023-04-03T07:05:03;100.47;;;95.68;;
11269;SDS011;5692;48.956;9.200;2023-04-03T07:07:30;98.60;;;93.88;;
11269;SDS011;5692;48.956;9.200;2023-04-03T07:09:59;105.00;;;99.95;;
11269;SDS011;5692;48.956;9.200;2023-04-03T07:12:25;109.45;;;104.18;;
11269;SDS011;5692;48.956;9.200;2023-04-03T07:14:51;107.82;;;102.63;;
11269;SDS011;5692;48.956;9.200;2023-04-03T07:17:18;104.90;;;99.85;;
11269;SDS011;5692;48.956;9.200;2023-04-03T07:19:46;110.43;;;105.10;;
11269;SDS011;5692;48.956;9.200;2023-04-03T07:22:13;112.95;;;107.55;;
11269;SDS011;5692;48.956;9.200;2023-04-03T07:24:39;114.97;;;109.45;;
11269;SDS011;5692;48.956;9.200;2023-04-03T07:27:05;113.78;;;108.28;;
11269;SDS011;5692;48.956;9.200;2023-04-03T07:29:34;107.60;;;102.40;;
11269;SDS011;5692;48.956;9.200;2023-04-03T07:32:01;111.03;;;105.70;;
11269;SDS011;5692;48.956;9.200;2023-04-03T07:34:27;105.70;;;100.60;;
11269;SDS011;5692;48.956;9.200;2023-04-03T07:36:53;107.75;;;102.55;;
11269;SDS011;5692;48.956;9.200;2023-04-03T07:39:19;104.75;;;99.75;;
11269;SDS011;5692;48.956;9.200;2023-04-03T07:41:46;103.32;;;98.35;;
11269;SDS011;5692;48.956;9.200;2023-04-03T07:44:12;107.93;;;102.72;;
11269;SDS011;5692;48.956;9.200;2023-04-03T07:46:38;99.95;;;95.15;;
11269;SDS011;5692;48.956;9.200;2023-04-03T07:49:06;105.78;;;100.68;;
11269;SDS011;5692;48.956;9.200;2023-04-03T07:51:32;106.35;;;101.25;;
11269;SDS011;5692;48.956;9.200;2023-04-03T07:53:58;108.55;;;103.35;;
11269;SDS011;5692;48.956;9.200;2023-04-03T07:56:24;108.18;;;102.97;;
11269;SDS011;5692;48.956;9.200;2023-04-03T07:58:51;112.95;;;107.55;;
11269;SDS011;5692;48.956;9.200;2023-04-03T08:01:17;106.13;;;101.03;;
11269;SDS011;5692;48.956;9.200;2023-04-03T08:03:43;106.28;;;101.18;;
11269;SDS011;5692;48.956;9.200;2023-04-03T08:06:09;110.00;;;104.70;;
11269;SDS011;5692;48.956;9.200;2023-04-03T08:08:35;104.55;;;99.55;;
11269;SDS011;5692;48.956;9.200;2023-04-03T08:11:02;104.82;;;99.78;;
11269;SDS011;5692;48.956;9.200;2023-04-03T08:13:30;113.47;;;108.03;;
11269;SDS011;5692;48.956;9.200;2023-04-03T08:15:57;114.72;;;109.22;;
11269;SDS011;5692;48.956;9.200;2023-04-03T08:18:24;125.72;;;119.72;;
11269;SDS011;5692;48.956;9.200;2023-04-03T08:20:52;113.32;;;107.88;;
11269;SDS011;5692;48.956;9.200;2023-04-03T08:23:18;120.18;;;114.38;;
11269;SDS011;5692;48.956;9.200;2023-04-03T08:25:45;114.85;;;109.35;;
11269;SDS011;5692;48.956;9.200;2023-04-03T08:28:16;122.55;;;116.65;;
11269;SDS011;5692;48.956;9.200;2023-04-03T08:30:43;123.85;;;117.90;;
11269;SDS011;5692;48.956;9.200;2023-04-03T08:33:09;112.75;;;107.35;;
11269;SDS011;5692;48.956;9.200;2023-04-03T08:35:39;123.97;;;118.03;;
11269;SDS011;5692;48.956;9.200;2023-04-03T08:38:06;111.07;;;105.78;;
11269;SDS011;5692;48.956;9.200;2023-04-03T08:40:32;110.30;;;105.00;;
11269;SDS011;5692;48.956;9.200;2023-04-03T08:50:51;126.13;;;120.07;;
11269;SDS011;5692;48.956;9.200;2023-04-03T08:53:21;123.57;;;117.65;;
11269;SDS011;5692;48.956;9.200;2023-04-03T08:55:48;129.35;;;123.13;;
11269;SDS011;5692;48.956;9.200;2023-04-03T08:58:18;133.73;;;127.30;;
11269;SDS011;5692;48.956;9.200;2023-04-03T09:03:24;138.55;;;131.90;;
11269;SDS011;5692;48.956;9.200;2023-04-03T09:05:53;133.50;;;127.10;;
11269;SDS011;5692;48.956;9.200;2023-04-03T09:10:55;137.38;;;130.77;;
11269;SDS011;5692;48.956;9.200;2023-04-03T09:15:54;148.88;;;141.77;;
11269;SDS011;5692;48.956;9.200;2023-04-03T09:18:22;151.00;;;143.77;;
11269;SDS011;5692;48.956;9.200;2023-04-03T09:20:54;147.23;;;140.18;;
11269;SDS011;5692;48.956;9.200;2023-04-03T09:23:24;144.63;;;137.70;;
11269;SDS011;5692;48.956;9.200;2023-04-03T09:25:53;170.13;;;161.98;;
11269;SDS011;5692;48.956;9.200;2023-04-03T09:28:21;163.40;;;155.57;;
11269;SDS011;5692;48.956;9.200;2023-04-03T09:30:49;153.75;;;146.35;;
11269;SDS011;5692;48.956;9.200;2023-04-03T09:33:15;160.68;;;152.98;;
11269;SDS011;5692;48.956;9.200;2023-04-03T09:35:45;174.52;;;166.18;;
11269;SDS011;5692;48.956;9.200;2023-04-03T09:40:39;146.80;;;139.75;;
11269;SDS011;5692;48.956;9.200;2023-04-03T09:45:51;138.80;;;132.15;;
11269;SDS011;5692;48.956;9.200;2023-04-03T09:48:19;139.40;;;132.70;;
11269;SDS011;5692;48.956;9.200;2023-04-03T09:50:53;144.15;;;137.25;;
11269;SDS011;5692;48.956;9.200;2023-04-03T09:53:45;151.70;;;144.40;;
11269;SDS011;5692;48.956;9.200;2023-04-03T09:58:50;143.90;;;137.00;;
11269;SDS011;5692;48.956;9.200;2023-04-03T10:01:32;145.10;;;138.10;;
11269;SDS011;5692;48.956;9.200;2023-04-03T10:04:15;147.80;;;140.70;;
11269;SDS011;5692;48.956;9.200;2023-04-03T10:06:45;141.57;;;134.77;;
11269;SDS011;5692;48.956;9.200;2023-04-03T10:09:20;147.23;;;140.15;;
11269;SDS011;5692;48.956;9.200;2023-04-03T10:12:06;140.32;;;133.60;;
11269;SDS011;5692;48.956;9.200;2023-04-03T10:14:35;140.15;;;133.45;;
11269;SDS011;5692;48.956;9.200;2023-04-03T10:18:02;147.05;;;140.00;;
11269;SDS011;5692;48.956;9.200;2023-04-03T10:22:37;139.77;;;133.07;;
11269;SDS011;5692;48.956;9.200;2023-04-03T10:30:32;137.23;;;130.63;;
11269;SDS011;5692;48.956;9.200;2023-04-03T10:41:03;135.07;;;128.57;;
11269;SDS011;5692;48.956;9.200;2023-04-03T10:43:36;134.40;;;127.95;;
11269;SDS011;5692;48.956;9.200;2023-04-03T10:46:11;158.63;;;151.02;;
11269;SDS011;5692;48.956;9.200;2023-04-03T10:56:55;128.30;;;122.10;;
11269;SDS011;5692;48.956;9.200;2023-04-03T10:59:27;133.95;;;127.55;;
11269;SDS011;5692;48.956;9.200;2023-04-03T11:02:01;128.75;;;122.55;;
11269;SDS011;5692;48.956;9.200;2023-04-03T11:04:40;133.57;;;127.18;;
11269;SDS011;5692;48.956;9.200;2023-04-03T11:07:18;131.70;;;125.40;;
11269;SDS011;5692;48.956;9.200;2023-04-03T11:15:35;134.38;;;127.93;;
11269;SDS011;5692;48.956;9.200;2023-04-03T11:18:03;139.25;;;132.55;;
11269;SDS011;5692;48.956;9.200;2023-04-03T11:20:31;124.78;;;118.78;;
11269;SDS011;5692;48.956;9.200;2023-04-03T11:25:40;136.75;;;130.15;;
11269;SDS011;5692;48.956;9.200;2023-04-03T11:28:12;133.32;;;126.93;;
11269;SDS011;5692;48.956;9.200;2023-04-03T11:35:50;127.68;;;121.57;;
11269;SDS011;5692;48.956;9.200;2023-04-03T11:38:27;126.22;;;120.13;;
11269;SDS011;5692;48.956;9.200;2023-04-03T11:40:55;125.45;;;119.45;;
11269;SDS011;5692;48.956;9.200;2023-04-03T11:43:27;126.65;;;120.55;;
11269;SDS011;5692;48.956;9.200;2023-04-03T11:46:01;129.70;;;123.50;;
11269;SDS011;5692;48.956;9.200;2023-04-03T11:50:59;134.02;;;127.57;;
11269;SDS011;5692;48.956;9.200;2023-04-03T11:53:35;118.05;;;112.35;;
11269;SDS011;5692;48.956;9.200;2023-04-03T11:59:36;121.40;;;115.60;;
11269;SDS011;5692;48.956;9.200;2023-04-03T12:01:43;123.43;;;117.50;;
11269;SDS011;5692;48.956;9.200;2023-04-03T12:04:11;127.70;;;121.57;;
11269;SDS011;5692;48.956;9.200;2023-04-03T12:11:51;133.88;;;127.47;;
11269;SDS011;5692;48.956;9.200;2023-04-03T12:14:17;128.73;;;122.53;;
11269;SDS011;5692;48.956;9.200;2023-04-03T12:16:45;129.93;;;123.70;;
11269;SDS011;5692;48.956;9.200;2023-04-03T12:47:38;132.82;;;126.43;;
11269;SDS011;5692;48.956;9.200;2023-04-03T12:55:27;139.27;;;132.57;;
11269;SDS011;5692;48.956;9.200;2023-04-03T12:57:54;142.30;;;135.50;;
11269;SDS011;5692;48.956;9.200;2023-04-03T13:02:53;136.13;;;129.60;;
11269;SDS011;5692;48.956;9.200;2023-04-03T13:05:19;140.40;;;133.68;;
11269;SDS011;5692;48.956;9.200;2023-04-03T13:07:52;138.43;;;131.77;;
11269;SDS011;5692;48.956;9.200;2023-04-03T13:10:20;132.80;;;126.43;;
11269;SDS011;5692;48.956;9.200;2023-04-03T13:15:20;146.18;;;139.18;;
11269;SDS011;5692;48.956;9.200;2023-04-03T13:17:48;142.88;;;136.00;;
11269;SDS011;5692;48.956;9.200;2023-04-03T13:20:19;132.80;;;126.40;;
11269;SDS011;5692;48.956;9.200;2023-04-03T13:25:20;146.30;;;139.27;;
11269;SDS011;5692;48.956;9.200;2023-04-03T13:27:46;158.35;;;150.77;;
11269;SDS011;5692;48.956;9.200;2023-04-03T13:32:51;162.68;;;154.88;;
11269;SDS011;5692;48.956;9.200;2023-04-03T13:38:04;179.35;;;170.77;;
11269;SDS011;5692;48.956;9.200;2023-04-03T13:40:31;168.75;;;160.65;;
11269;SDS011;5692;48.956;9.200;2023-04-03T13:43:00;163.65;;;155.80;;
11269;SDS011;5692;48.956;9.200;2023-04-03T13:45:31;158.27;;;150.68;;
11269;SDS011;5692;48.956;9.200;2023-04-03T13:53:20;155.40;;;147.95;;
11269;SDS011;5692;48.956;9.200;2023-04-03T13:58:23;147.23;;;140.18;;
11269;SDS011;5692;48.956;9.200;2023-04-03T14:00:52;147.27;;;140.20;;
11269;SDS011;5692;48.956;9.200;2023-04-03T14:03:26;141.18;;;134.38;;
11269;SDS011;5692;48.956;9.200;2023-04-03T14:05:54;157.48;;;149.93;;
11269;SDS011;5692;48.956;9.200;2023-04-03T14:08:21;162.13;;;154.35;;
11269;SDS011;5692;48.956;9.200;2023-04-03T14:10:47;161.90;;;154.15;;
11269;SDS011;5692;48.956;9.200;2023-04-03T14:13:15;149.07;;;141.93;;
11269;SDS011;5692;48.956;9.200;2023-04-03T14:15:42;152.35;;;145.02;;
11269;SDS011;5692;48.956;9.200;2023-04-03T14:18:18;150.15;;;142.95;;
11269;SDS011;5692;48.956;9.200;2023-04-03T14:20:45;151.95;;;144.68;;
11269;SDS011;5692;48.956;9.200;2023-04-03T14:23:12;140.93;;;134.13;;
11269;SDS011;5692;48.956;9.200;2023-04-03T14:25:38;147.70;;;140.60;;
11269;SDS011;5692;48.956;9.200;2023-04-03T14:28:17;143.95;;;137.05;;
11269;SDS011;5692;48.956;9.200;2023-04-03T14:30:43;131.95;;;125.65;;
11269;SDS011;5692;48.956;9.200;2023-04-03T14:33:14;131.90;;;125.60;;
11269;SDS011;5692;48.956;9.200;2023-04-03T14:35:40;139.77;;;133.05;;
11269;SDS011;5692;48.956;9.200;2023-04-03T14:40:48;143.13;;;136.25;;
11269;SDS011;5692;48.956;9.200;2023-04-03T14:43:14;136.10;;;129.57;;
11269;SDS011;5692;48.956;9.200;2023-04-03T14:45:41;151.10;;;143.88;;
11269;SDS011;5692;48.956;9.200;2023-04-03T14:48:10;134.63;;;128.18;;
11269;SDS011;5692;48.956;9.200;2023-04-03T14:50:37;142.10;;;135.30;;
11269;SDS011;5692;48.956;9.200;2023-04-03T14:53:03;153.55;;;146.15;;
11269;SDS011;5692;48.956;9.200;2023-04-03T14:55:29;154.98;;;147.55;;
11269;SDS011;5692;48.956;9.200;2023-04-03T14:57:56;148.02;;;140.93;;
11269;SDS011;5692;48.956;9.200;2023-04-03T15:00:25;162.50;;;154.70;;
11269;SDS011;5692;48.956;9.200;2023-04-03T15:02:51;153.10;;;145.77;;
11269;SDS011;5692;48.956;9.200;2023-04-03T15:05:17;160.55;;;152.85;;
11269;SDS011;5692;48.956;9.200;2023-04-03T15:07:47;148.75;;;141.65;;
11269;SDS011;5692;48.956;9.200;2023-04-03T15:10:16;157.15;;;149.65;;
11269;SDS011;5692;48.956;9.200;2023-04-03T15:12:43;163.52;;;155.68;;
11269;SDS011;5692;48.956;9.200;2023-04-03T15:15:10;148.90;;;141.77;;
11269;SDS011;5692;48.956;9.200;2023-04-03T15:17:36;145.20;;;138.20;;
11269;SDS011;5692;48.956;9.200;2023-04-03T15:20:03;141.07;;;134.27;;
11269;SDS011;5692;48.956;9.200;2023-04-03T15:22:35;146.52;;;139.52;;
11269;SDS011;5692;48.956;9.200;2023-04-03T15:25:01;134.57;;;128.13;;
11269;SDS011;5692;48.956;9.200;2023-04-03T15:27:28;141.57;;;134.77;;
11269;SDS011;5692;48.956;9.200;2023-04-03T15:29:57;136.65;;;130.05;;
11269;SDS011;5692;48.956;9.200;2023-04-03T15:32:23;127.05;;;120.95;;
11269;SDS011;5692;48.956;9.200;2023-04-03T15:34:49;146.95;;;139.93;;
11269;SDS011;5692;48.956;9.200;2023-04-03T15:37:15;141.23;;;134.43;;
11269;SDS011;5692;48.956;9.200;2023-04-03T15:39:42;147.82;;;140.73;;
11269;SDS011;5692;48.956;9.200;2023-04-03T15:42:08;150.73;;;143.50;;
11269;SDS011;5692;48.956;9.200;2023-04-03T15:44:34;156.18;;;148.68;;
11269;SDS011;5692;48.956;9.200;2023-04-03T15:47:00;145.55;;;138.55;;
11269;SDS011;5692;48.956;9.200;2023-04-03T15:49:27;142.00;;;135.20;;
11269;SDS011;5692;48.956;9.200;2023-04-03T15:51:54;147.45;;;140.38;;
11269;SDS011;5692;48.956;9.200;2023-04-03T15:54:20;141.63;;;134.82;;
11269;SDS011;5692;48.956;9.200;2023-04-03T15:56:49;142.25;;;135.45;;
11269;SDS011;5692;48.956;9.200;2023-04-03T15:59:15;145.65;;;138.65;;
11269;SDS011;5692;48.956;9.200;2023-04-03T16:01:41;139.23;;;132.55;;
11269;SDS011;5692;48.956;9.200;2023-04-03T16:04:08;133.10;;;126.70;;
11269;SDS011;5692;48.956;9.200;2023-04-03T16:06:36;152.00;;;144.70;;
11269;SDS011;5692;48.956;9.200;2023-04-03T16:09:03;142.65;;;135.82;;
11269;SDS011;5692;48.956;9.200;2023-04-03T16:11:29;145.70;;;138.70;;
11269;SDS011;5692;48.956;9.200;2023-04-03T16:13:55;153.52;;;146.15;;
11269;SDS011;5692;48.956;9.200;2023-04-03T16:16:22;144.55;;;137.63;;
11269;SDS011;5692;48.956;9.200;2023-04-03T16:18:49;140.55;;;133.82;;
11269;SDS011;5692;48.956;9.200;2023-04-03T16:21:16;145.30;;;138.30;;
11269;SDS011;5692;48.956;9.200;2023-04-03T16:23:43;143.02;;;136.13;;
11269;SDS011;5692;48.956;9.200;2023-04-03T16:26:09;150.15;;;142.95;;
11269;SDS011;5692;48.956;9.200;2023-04-03T16:28:35;141.70;;;134.90;;